createdAt,value
2018-09-19T14:18:05.162Z,27.59
2018-09-19T14:20:33.035Z,27.73
2018-09-19T14:23:00.711Z,27.76
2018-09-19T14:25:28.951Z,27.75
2018-09-19T14:27:56.714Z,27.94
2018-09-19T14:30:24.349Z,27.97
2018-09-19T14:32:51.950Z,28.10
2018-09-19T14:35:19.729Z,28.12
2018-09-19T14:37:47.604Z,28.22
2018-09-19T14:40:15.142Z,28.05
2018-09-19T14:42:42.799Z,27.96
2018-09-19T14:45:10.374Z,27.94
2018-09-19T14:47:37.926Z,27.81
2018-09-19T14:50:05.511Z,27.90
2018-09-19T14:52:33.089Z,27.71
2018-09-19T14:55:00.740Z,27.85
2018-09-19T14:57:28.674Z,27.81
2018-09-19T14:59:57.612Z,27.58
2018-09-19T15:02:25.547Z,27.53
2018-09-19T15:04:53.195Z,27.57
2018-09-19T15:07:20.759Z,27.62
2018-09-19T15:09:48.501Z,27.55
2018-09-19T15:12:16.078Z,27.46
2018-09-19T15:14:43.816Z,27.35
2018-09-19T15:17:11.366Z,27.23
2018-09-19T15:19:38.928Z,27.11
2018-09-19T15:22:06.819Z,27.01
2018-09-19T15:24:34.604Z,27.04
2018-09-19T15:27:02.166Z,27.00
2018-09-19T15:29:29.693Z,26.97
2018-09-19T15:31:57.546Z,26.97
2018-09-19T15:34:25.081Z,27.00
2018-09-19T15:36:52.672Z,27.01
2018-09-19T15:39:20.222Z,27.03
2018-09-19T15:41:47.779Z,27.08
2018-09-19T15:44:15.385Z,27.07
2018-09-19T15:46:43.139Z,26.99
2018-09-19T15:49:10.670Z,26.93
2018-09-19T15:51:38.201Z,26.97
2018-09-19T15:54:05.845Z,26.94
2018-09-19T15:56:33.381Z,26.91
2018-09-19T15:59:00.939Z,27.10
2018-09-19T16:01:28.691Z,26.93
2018-09-19T16:03:56.294Z,26.91
2018-09-19T16:06:23.852Z,26.87
2018-09-19T16:08:51.524Z,26.78
2018-09-19T16:11:19.096Z,26.78
2018-09-19T16:13:46.673Z,26.71
2018-09-19T16:16:14.301Z,26.70
2018-09-19T16:18:41.946Z,26.76
2018-09-19T16:21:09.527Z,26.69
2018-09-19T16:23:37.081Z,26.47
2018-09-19T16:26:04.638Z,26.38
2018-09-19T16:28:32.458Z,26.39
2018-09-19T16:31:00.017Z,26.39
2018-09-19T16:33:27.550Z,26.34
2018-09-19T16:35:55.165Z,26.35
2018-09-19T16:38:22.738Z,26.24
2018-09-19T16:40:50.278Z,26.20
2018-09-19T16:43:17.810Z,26.14
2018-09-19T16:45:45.613Z,26.11
2018-09-19T16:48:13.123Z,26.02
2018-09-19T16:50:40.691Z,25.97
2018-09-19T16:53:08.385Z,25.91
2018-09-19T16:55:35.870Z,25.90
2018-09-19T16:58:03.492Z,25.75
2018-09-19T17:00:31.079Z,25.73
2018-09-19T17:02:58.657Z,25.67
2018-09-19T17:05:26.272Z,25.61
2018-09-19T17:07:53.813Z,25.59
2018-09-19T17:10:21.366Z,25.53
2018-09-19T17:12:49.358Z,25.48
2018-09-19T17:15:16.988Z,25.38
2018-09-19T17:17:44.485Z,25.28
2018-09-19T17:20:12.420Z,25.25
2018-09-19T17:22:39.993Z,25.17
2018-09-19T17:25:07.623Z,25.11
2018-09-19T17:27:35.467Z,25.04
2018-09-19T17:30:03.097Z,24.98
2018-09-19T17:32:30.657Z,24.87
2018-09-19T17:34:58.597Z,24.83
2018-09-19T17:37:26.369Z,24.81
2018-09-19T17:39:53.975Z,24.70
2018-09-19T17:42:21.616Z,24.58
2018-09-19T17:44:49.175Z,24.48
2018-09-19T17:47:16.861Z,24.28
2018-09-19T17:49:44.485Z,24.42
2018-09-19T17:52:12.106Z,24.48
2018-09-19T17:54:39.881Z,23.98
2018-09-19T17:57:07.497Z,23.98
2018-09-19T17:59:35.071Z,23.95
2018-09-19T18:02:02.643Z,23.69
2018-09-19T18:04:30.447Z,23.42
2018-09-19T18:06:58.014Z,23.32
2018-09-19T18:09:25.578Z,23.05
2018-09-19T18:11:53.421Z,22.97
2018-09-19T18:14:21.000Z,22.84
2018-09-19T18:16:48.600Z,22.71
2018-09-19T18:19:16.513Z,22.68
2018-09-19T18:21:44.082Z,22.79
2018-09-19T18:24:11.651Z,22.90
2018-09-19T18:26:39.208Z,22.63
2018-09-19T18:29:06.776Z,22.57
2018-09-19T18:31:34.606Z,22.78
2018-09-19T18:34:02.199Z,22.67
2018-09-19T18:36:29.826Z,22.51
2018-09-19T18:38:57.544Z,22.37
2018-09-19T18:41:25.139Z,22.27
2018-09-19T18:43:52.679Z,22.08
2018-09-19T18:46:20.302Z,21.90
2018-09-19T18:48:47.894Z,21.75
2018-09-19T18:51:15.459Z,21.45
2018-09-19T18:53:43.221Z,21.30
2018-09-19T18:56:10.868Z,21.22
2018-09-19T18:58:38.683Z,21.16
2018-09-19T19:01:06.311Z,21.13
2018-09-19T19:03:33.844Z,21.05
2018-09-19T19:06:01.453Z,21.03
2018-09-19T19:08:29.327Z,20.95
2018-09-19T19:10:56.870Z,20.98
2018-09-19T19:13:24.419Z,20.92
2018-09-19T19:15:52.017Z,20.92
2018-09-19T19:18:19.703Z,20.95
2018-09-19T19:20:47.323Z,21.02
2018-09-19T19:23:14.884Z,20.94
2018-09-19T19:25:43.059Z,20.84
2018-09-19T19:28:10.648Z,20.79
2018-09-19T19:30:38.230Z,20.72
2018-09-19T19:33:05.833Z,20.63
2018-09-19T19:35:33.439Z,20.54
2018-09-19T19:38:01.051Z,20.44
2018-09-19T19:40:28.603Z,20.41
2018-09-19T19:42:56.141Z,20.25
2018-09-19T19:45:23.724Z,20.15
2018-09-19T19:47:51.319Z,20.16
2018-09-19T19:50:19.131Z,20.08
2018-09-19T19:52:46.786Z,20.04
2018-09-19T19:55:14.404Z,20.03
2018-09-19T19:57:42.017Z,19.97
2018-09-19T20:00:09.634Z,19.97
2018-09-19T20:02:37.194Z,19.97
2018-09-19T20:05:04.869Z,19.98
2018-09-19T20:07:32.409Z,19.92
2018-09-19T20:09:59.946Z,19.97
2018-09-19T20:12:27.542Z,19.97
2018-09-19T20:14:55.282Z,19.91
2018-09-19T20:17:22.873Z,19.91
2018-09-19T20:19:50.454Z,19.96
2018-09-19T20:22:17.994Z,19.97
2018-09-19T20:24:45.581Z,19.95
2018-09-19T20:27:13.226Z,19.91
2018-09-19T20:29:40.814Z,19.89
2018-09-19T20:32:08.331Z,19.85
2018-09-19T20:34:36.149Z,19.92
2018-09-19T20:37:03.703Z,19.96
2018-09-19T20:39:31.222Z,19.91
2018-09-19T20:41:58.766Z,19.90
2018-09-19T20:44:26.287Z,19.75
2018-09-19T20:46:53.888Z,19.65
2018-09-19T20:49:21.405Z,19.62
2018-09-19T20:51:48.972Z,19.65
2018-09-19T20:54:16.534Z,19.58
2018-09-19T20:56:44.090Z,19.57
2018-09-19T20:59:11.630Z,19.58
2018-09-19T21:01:39.183Z,19.53
2018-09-19T21:04:06.752Z,19.55
2018-09-19T21:06:34.283Z,19.65
2018-09-19T21:09:02.076Z,19.61
2018-09-19T21:11:29.718Z,19.53
2018-09-19T21:13:57.242Z,19.53
2018-09-19T21:16:24.781Z,19.51
2018-09-19T21:18:52.406Z,19.51
2018-09-19T21:21:19.989Z,19.52
2018-09-19T21:23:47.509Z,19.49
2018-09-19T21:26:15.041Z,19.49
2018-09-19T21:28:42.629Z,19.41
2018-09-19T21:31:10.146Z,19.36
2018-09-19T21:33:37.700Z,19.25
2018-09-19T21:36:05.253Z,19.24
2018-09-19T21:38:32.791Z,19.21
2018-09-19T21:41:00.494Z,19.10
2018-09-19T21:43:28.013Z,18.99
2018-09-19T21:45:55.758Z,18.97
2018-09-19T21:48:23.287Z,18.89
2018-09-19T21:50:50.811Z,18.86
2018-09-19T21:53:18.354Z,19.08
2018-09-19T21:55:46.589Z,19.13
2018-09-19T21:58:14.147Z,19.11
2018-09-19T22:00:41.919Z,18.92
2018-09-19T22:03:09.434Z,18.74
2018-09-19T22:05:36.967Z,18.66
2018-09-19T22:08:04.505Z,18.64
2018-09-19T22:10:32.046Z,18.64
2018-09-19T22:12:59.615Z,18.65
2018-09-19T22:15:27.163Z,18.67
2018-09-19T22:17:54.689Z,18.77
2018-09-19T22:20:22.259Z,18.77
2018-09-19T22:22:49.825Z,18.73
2018-09-19T22:25:17.362Z,18.62
2018-09-19T22:27:44.942Z,18.56
2018-09-19T22:30:12.454Z,18.53
2018-09-19T22:32:40.011Z,18.48
2018-09-19T22:35:07.562Z,18.50
2018-09-19T22:37:35.110Z,18.53
2018-09-19T22:40:02.675Z,18.46
2018-09-19T22:42:30.243Z,18.40
2018-09-19T22:44:58.288Z,18.36
2018-09-19T22:47:25.838Z,18.34
2018-09-19T22:49:53.353Z,18.32
2018-09-19T22:52:20.903Z,18.30
2018-09-19T22:54:48.525Z,18.23
2018-09-19T22:57:16.198Z,18.25
2018-09-19T22:59:43.733Z,18.18
2018-09-19T23:02:11.250Z,18.15
2018-09-19T23:04:38.793Z,18.05
2018-09-19T23:07:06.390Z,18.07
2018-09-19T23:09:34.401Z,18.10
2018-09-19T23:12:01.908Z,18.18
2018-09-19T23:14:29.455Z,18.26
2018-09-19T23:16:56.991Z,18.11
2018-09-19T23:19:24.534Z,17.95
2018-09-19T23:21:52.141Z,18.07
2018-09-19T23:24:19.677Z,17.97
2018-09-19T23:26:47.242Z,17.81
2018-09-19T23:29:14.826Z,17.86
2018-09-19T23:31:42.374Z,17.73
2018-09-19T23:34:09.891Z,17.78
2018-09-19T23:36:37.407Z,17.78
2018-09-19T23:39:06.232Z,17.68
2018-09-19T23:41:33.771Z,17.65
2018-09-19T23:44:01.302Z,17.60
2018-09-19T23:46:29.215Z,17.51
2018-09-19T23:48:56.747Z,17.46
2018-09-19T23:51:24.267Z,17.41
2018-09-19T23:53:51.814Z,17.37
2018-09-19T23:56:19.338Z,17.40
2018-09-19T23:58:47.113Z,17.41
